1996 Severe Tropical Cyclone KIRSTY (1996066S17129)


IBTrACS version v04r00. Visit IBTrACS website for data access.
Please direct all questions to the IBTrACS Q and A forum

Storm track - Intensity - Wind Radii - Intensity Data - Source Data - All data

Summary Information

Satellite image near maximum intensity
Storm ID 1996066S17129
Start Mar 6 06Z
Landfall Mar 7 16Z, Mar 11 21Z
Max Intensity 100 kt (Mar 11 18Z), 935 mb (Mar 11 19Z)
End Mar 14 12Z
ATCF IDs SH181996
Track status Best track data.

Storm track plot

Map of storm track

Intensity plots

Map of storm track

Radial wind information

Map of storm track

Position and Intensity Table

BASIN ISO_TIME_________ NATURE LAT LON WMO WIND WMO PRES USA WIND BOM WIND BOM PRES NEUMANN WIND
degrees north degrees east kts mb kts kts mb kts
SI 1996-03-06 06:00:00 TS -17.20 128.60 15 15
SI 09:00:00 TS -17.03 128.32 15 15
SI 12:00:00 TS -16.90 128.00 15 15
SI 15:00:00 TS -16.83 127.62 17 17
SI 18:00:00 TS -16.80 127.20 20 20
SI 21:00:00 TS -16.80 126.81 20 20
SI 1996-03-07 00:00:00 TS -16.80 126.40 20 20
SI 03:00:00 TS -16.76 125.95 20 20
SI 06:00:00 TS -16.70 125.50 20 20
SI 09:00:00 TS -16.65 125.10 20 20
SI 10:00:00 TS -16.63 124.97 25 1000 20 20
SI 12:00:00 TS -16.60 124.70 20 20
SI 13:00:00 TS -16.58 124.56 25 1000 20 20
SI 15:00:00 TS -16.55 124.27 22 22
SI 16:00:00 TS -16.53 124.12 30 998 23 23
SI 18:00:00 TS -16.50 123.80 25 25
SI 19:00:00 TS -16.48 123.63 30 998 25 25
SI 21:00:00 TS -16.44 123.26 25 25
SI 22:00:00 TS -16.43 123.08 30 998 25 25
SI 1996-03-08 00:00:00 TS -16.40 122.70 25 25
SI 01:00:00 TS -16.43 122.31 30 998 25 30 998 25
SI 03:00:00 TS -16.46 121.80 25 30 998 25
SI 04:00:00 TS -16.48 121.51 30 998 25 30 998 25
SI 06:00:00 TS -16.48 121.12 25 30 998 25
SI 07:00:00 TS -16.46 120.98 30 998 26 30 998 26
SI 09:00:00 TS -16.38 120.72 30 33 996 30
SI 10:00:00 TS -16.33 120.60 35 995 31 35 995 31
SI 12:00:00 TS -16.24 120.38 35 35 995 35
SI 13:00:00 TS -16.19 120.27 35 995 36 35 995 36
SI 15:00:00 TS -16.08 120.06 40 35 995 40
SI 16:00:00 TS -16.03 119.99 35 995 41 35 995 41
SI 18:00:00 TS -15.94 119.91 45 38 991 45
SI 19:00:00 TS -15.91 119.89 40 990 45 40 990 45
SI 21:00:00 TS -15.90 119.86 47 40 990 47
SI 22:00:00 TS -15.91 119.85 40 990 48 40 990 48
SI 1996-03-09 00:00:00 TS -15.96 119.85 50 40 990 50
SI 01:00:00 TS -15.99 119.81 40 990 50 40 990 50
SI 03:00:00 TS -16.02 119.69 50 46 986 50
SI 04:00:00 TS -16.02 119.64 50 985 50 50 985 50
SI 06:00:00 TS -15.98 119.65 50 50 985 50
SI 07:00:00 TS -15.95 119.67 50 985 50 50 985 50
SI 09:00:00 TS -15.91 119.70 52 50 985 52
SI 10:00:00 TS -15.88 119.73 50 985 53 50 985 53
SI 12:00:00 TS -15.84 119.82 55 50 985 55
SI 13:00:00 TS -15.82 119.88 50 985 55 50 985 55
SI 15:00:00 TS -15.79 120.00 57 53 981 57
SI 16:00:00 TS -15.78 120.07 55 980 58 55 980 58
SI 18:00:00 TS -15.80 120.24 60 55 980 60
SI 19:00:00 TS -15.82 120.33 55 980 60 55 980 60
SI 21:00:00 TS -15.90 120.52 62 55 980 62
SI 22:00:00 TS -15.95 120.61 55 980 63 55 980 63
SI 1996-03-10 00:00:00 TS -16.05 120.78 65 58 976 65
SI 01:00:00 TS -16.11 120.86 60 975 65 60 975 65
SI 03:00:00 TS -16.23 121.03 67 60 975 67
SI 04:00:00 TS -16.30 121.11 60 975 68 60 975 68
SI 06:00:00 TS -16.46 121.24 70 63 971 70
SI 07:00:00 TS -16.55 121.29 66 970 70 66 970 70
SI 09:00:00 TS -16.73 121.31 72 65 970 72
SI 10:00:00 TS -16.82 121.30 65 970 73 65 970 73
SI 12:00:00 TS -17.00 121.27 75 68 966 75
SI 13:00:00 TS -17.08 121.24 70 965 75 70 965 75
SI 15:00:00 TS -17.22 121.17 77 70 965 77
SI 16:00:00 TS -17.28 121.11 70 965 78 70 965 78
SI 18:00:00 TS -17.39 120.96 80 76 961 80
SI 19:00:00 TS -17.45 120.90 80 960 80 80 960 80
SI 21:00:00 TS -17.60 120.83 82 80 960 82
SI 22:00:00 TS -17.69 120.80 80 960 83 80 960 83
SI 1996-03-11 00:00:00 TS -17.86 120.74 85 80 956 85
SI 01:00:00 TS -17.95 120.70 80 955 85 80 955 85
SI 03:00:00 TS -18.12 120.59 87 80 955 87
SI 04:00:00 TS -18.21 120.53 80 955 88 80 955 88
SI 06:00:00 TS -18.40 120.42 90 80 955 90
SI 07:00:00 TS -18.50 120.37 80 955 90 80 955 90
SI 09:00:00 TS -18.72 120.26 92 80 955 92
SI 10:00:00 TS -18.83 120.21 80 955 93 80 955 93
SI 12:00:00 TS -19.09 120.09 95 86 951 95
SI 13:00:00 TS -19.22 120.02 90 950 95 90 950 95
SI 15:00:00 TS -19.44 119.91 97 93 943 97
SI 16:00:00 TS -19.55 119.85 95 940 98 95 940 98
SI 18:00:00 TS -19.82 119.72 100 98 936 100
SI 19:00:00 TS -19.96 119.67 100 935 100 100 935 100
SI 21:00:00 TS -20.20 119.57 100 100 935 100
SI 22:00:00 TS -20.32 119.53 100 935 100 100 935 100
SI 1996-03-12 00:00:00 TS -20.59 119.47 100 93 941 100
SI 01:00:00 TS -20.72 119.45 90 945 98 90 945 98
SI 03:00:00 TS -20.99 119.43 95 83 951 95
SI 04:00:00 TS -21.12 119.44 80 955 93 80 955 93
SI 06:00:00 TS -21.39 119.46 90 73 961 90
SI 07:00:00 TS -21.52 119.49 70 965 86 70 965 86
SI 09:00:00 TS -21.81 119.62 80 63 971 80
SI 10:00:00 TS -21.96 119.69 60 975 76 60 975 76
SI 12:00:00 TS -22.24 119.82 70 56 978 70
SI 13:00:00 TS -22.39 119.89 55 980 65 55 980 65
SI 15:00:00 TS -22.68 120.01 57 48 983 57
SI 16:00:00 TS -22.82 120.09 45 985 53 45 985 53
SI 18:00:00 TS -23.13 120.24 45 41 988 45
SI 19:00:00 TS -23.29 120.33 40 990 40 40 990 40
SI 21:00:00 TS -23.59 120.49 32 36 993 32
SI 22:00:00 TS -23.75 120.57 35 995 28 35 995 28
SI 1996-03-13 00:00:00 TS -24.07 120.71 20 35 995 20
SI 01:00:00 TS -24.23 120.77 35 995 20 35 995 20
SI 03:00:00 TS -24.58 120.86 20 35 995 20
SI 04:00:00 TS -24.75 120.90 35 995 20 35 995 20
SI 06:00:00 TS -25.11 120.97 20 35 995 20
SI 07:00:00 TS -25.30 121.02 35 995 20 35 995 20
SI 09:00:00 TS -25.68 121.13 20 35 995 20
SI 10:00:00 TS -25.89 121.21 35 995 20 35 995 20
SI 12:00:00 TS -26.33 121.40 20 31 996 20
SI 13:00:00 TS -26.56 121.51 30 998 20 30 998 20
SI 15:00:00 TS -27.01 121.73 20 30 998 20
SI 16:00:00 TS -27.25 121.86 30 998 20 30 998 20
SI 18:00:00 TS -27.75 122.17 20 30 998 20
SI 19:00:00 TS -28.01 122.34 30 998 20 30 998 20
SI 21:00:00 TS -28.55 122.72 20 30 998 20
SI 22:00:00 TS -28.82 122.81 30 998 20 30 998 20
SI 1996-03-14 00:00:00 TS -29.37 123.08 20 26 999 20
SI 01:00:00 TS -29.66 123.06 25 1000 20 25 1000 20
SI 03:00:00 TS -30.24 123.12 20 20
SI 06:00:00 TS -31.10 123.70 20 20
SI 09:00:00 TS -31.99 124.30 20 20
SI 12:00:00 TS -32.90 124.90 20 20

Source Information

Agency Information
USA bsh181996.txt
TOKYO
CMA
HKO
NEWDELHI
REUNION
BOM IDCKMSTM0S.csv:Line=18749:KIRSTY
NADI
WELLINGTON
DS824
TD9636
TD9635
NEUMANN tracks.sh:Storm=1054:KIRSTY:BSH181996:JTWC&BM849
MLC

All available IBTrACS Data

SEASON BASIN SUBBASIN ISO_TIME_________ NATURE LAT LON WMO WIND WMO PRES WMO AGENCY DIST2LAND LANDFALL IFLAG USA AGENCY USA ATCF_ID USA LAT USA LON USA WIND USA SSHS BOM LAT BOM LON BOM TYPE BOM WIND BOM PRES BOM CI BOM ROCI BOM EYE BOM POS_METHOD BOM PRES_METHOD NEUMANN LAT NEUMANN LON NEUMANN CLASS NEUMANN WIND STORM SPEED STORM DIR
Year degrees north degrees east kts mb km km degrees north degrees east kts 1 degrees north degrees east kts mb 1 nmile nmile degrees north degrees east kts kts degrees
1996 SI WA 1996-03-06 06:00:00 TS -17.20 128.60 0 0 O___________O_ jtwc_sh SH181996 -17.20 128.60 15 -1 -17.20 128.60 TC 15 6 302
1996 SI WA 09:00:00 TS -17.03 128.32 0 0 P___________P_ SH181996 -17.03 128.32 15 -1 -17.03 128.32 TC 15 6 298
1996 SI WA 12:00:00 TS -16.90 128.00 0 0 O___________O_ jtwc_sh SH181996 -16.90 128.00 15 -1 -16.90 128.00 TC 15 7 287
1996 SI WA 15:00:00 TS -16.83 127.62 0 0 P___________P_ SH181996 -16.83 127.62 17 -1 -16.83 127.62 TC 17 8 277
1996 SI WA 18:00:00 TS -16.80 127.20 0 0 O___________O_ jtwc_sh SH181996 -16.80 127.20 20 -1 -16.80 127.20 TC 20 8 272
1996 SI WA 21:00:00 TS -16.80 126.81 0 0 P___________P_ SH181996 -16.80 126.81 20 -1 -16.80 126.81 TC 20 8 270
1996 SI WA 1996-03-07 00:00:00 TS -16.80 126.40 0 0 O___________O_ jtwc_sh SH181996 -16.80 126.40 20 -1 -16.80 126.40 TC 20 8 273
1996 SI WA 03:00:00 TS -16.76 125.95 0 0 P___________P_ SH181996 -16.76 125.95 20 -1 -16.76 125.95 TC 20 9 277
1996 SI WA 06:00:00 TS -16.70 125.50 0 0 O___________O_ jtwc_sh SH181996 -16.70 125.50 20 -1 -16.70 125.50 TC 20 8 278
1996 SI WA 09:00:00 TS -16.65 125.10 0 0 P___________P_ SH181996 -16.65 125.10 20 -1 -16.65 125.10 TC 20 8 277
1996 SI WA 10:00:00 TS -16.63 124.97 25 1000 bom 0 0 P___________P_ SH181996 -16.63 124.97 20 -1 -16.63 124.97 TC 20 8 277
1996 SI WA 12:00:00 TS -16.60 124.70 0 0 O___________O_ jtwc_sh SH181996 -16.60 124.70 20 -1 -16.60 124.70 TC 20 8 277
1996 SI WA 13:00:00 TS -16.58 124.56 25 1000 bom 0 0 P___________P_ SH181996 -16.58 124.56 20 -1 -16.58 124.56 TC 20 8 277
1996 SI WA 15:00:00 TS -16.55 124.27 10 0 P___________P_ SH181996 -16.55 124.27 22 -1 -16.55 124.27 TC 22 8 277
1996 SI WA 16:00:00 TS -16.53 124.12 30 998 bom 0 0 P___________P_ SH181996 -16.53 124.12 23 -1 -16.53 124.12 TC 23 9 276
1996 SI WA 18:00:00 TS -16.50 123.80 0 0 O___________O_ jtwc_sh SH181996 -16.50 123.80 25 -1 -16.50 123.80 TC 25 10 276
1996 SI WA 19:00:00 TS -16.48 123.63 30 998 bom 10 10 P___________P_ SH181996 -16.48 123.63 25 -1 -16.48 123.63 TC 25 10 276
1996 SI WA 21:00:00 TS -16.44 123.26 30 15 P___________P_ SH181996 -16.44 123.26 25 -1 -16.44 123.26 TC 25 11 276
1996 SI WA 22:00:00 TS -16.43 123.08 30 998 bom 15 11 P___________P_ SH181996 -16.43 123.08 25 -1 -16.43 123.08 TC 25 11 274
1996 SI WA 1996-03-08 00:00:00 TS -16.40 122.70 24 24 O___________O_ jtwc_sh SH181996 -16.40 122.70 25 -1 -16.40 122.70 TC 25 15 270
1996 SI WA 01:00:00 TS -16.43 122.31 30 998 bom 54 54 P_____O_____P_ SH181996 -16.40 122.51 25 -1 -16.70 120.70 20 30 998 2.50 53 3 5 -16.40 122.51 TC 25 17 266
1996 SI WA 03:00:00 TS -16.46 121.80 85 85 P_____P_____P_ SH181996 -16.40 122.14 25 -1 -16.70 120.42 20 30 998 53 -16.40 122.14 TC 25 16 266
1996 SI WA 04:00:00 TS -16.48 121.51 30 998 bom 108 108 P_____O_____P_ SH181996 -16.40 121.96 25 -1 -16.70 120.30 20 30 998 2.50 53 3 5 -16.40 121.96 TC 25 13 268
1996 SI WA 06:00:00 TS -16.48 121.12 144 144 O_____P_____O_ jtwc_sh SH181996 -16.40 121.60 25 -1 -16.65 120.15 20 30 998 70 -16.40 121.60 TC 25 10 273
1996 SI WA 07:00:00 TS -16.46 120.98 30 998 bom 153 153 P_____O_____P_ SH181996 -16.39 121.42 26 -1 -16.60 120.10 20 30 998 2.50 80 3 5 -16.39 121.42 TC 26 8 286
1996 SI WA 09:00:00 TS -16.38 120.72 187 187 P_____P_____P_ SH181996 -16.36 121.07 30 -1 -16.41 120.03 20 33 996 97 -16.36 121.07 TC 30 8 290
1996 SI WA 10:00:00 TS -16.33 120.60 35 995 bom 202 202 P_____O_____P_ SH181996 -16.34 120.90 31 -1 -16.30 120.00 30 35 995 3.00 107 3 5 -16.34 120.90 TC 31 7 293
1996 SI WA 12:00:00 TS -16.24 120.38 226 226 O_____P_____O_ jtwc_sh SH181996 -16.30 120.60 35 0 -16.11 119.93 30 35 995 124 -16.30 120.60 TC 35 7 293
1996 SI WA 13:00:00 TS -16.19 120.27 35 995 bom 235 235 P_____O_____P_ SH181996 -16.29 120.45 36 0 -16.00 119.90 30 35 995 3.00 134 3 5 -16.29 120.45 TC 36 7 297
1996 SI WA 15:00:00 TS -16.08 120.06 259 259 P_____P_____P_ SH181996 -16.26 120.19 40 0 -15.72 119.81 30 35 995 151 -16.26 120.19 TC 40 6 301
1996 SI WA 16:00:00 TS -16.03 119.99 35 995 bom 274 274 P_____O_____P_ SH181996 -16.24 120.08 41 0 -15.60 119.80 30 35 995 3.00 161 3 5 -16.24 120.08 TC 41 4 313
1996 SI WA 18:00:00 TS -15.94 119.91 289 289 O_____P_____O_ jtwc_sh SH181996 -16.20 119.90 45 0 -15.42 119.92 30 38 991 178 -16.20 119.90 TC 45 3 323
1996 SI WA 19:00:00 TS -15.91 119.89 40 990 bom 289 289 P_____O_____P_ SH181996 -16.17 119.84 45 0 -15.40 120.00 30 40 990 3.00 188 3 5 -16.17 119.84 TC 45 1 320
1996 SI WA 21:00:00 TS -15.90 119.86 289 289 P_____P_____P_ SH181996 -16.10 119.76 47 0 -15.50 120.08 30 40 990 205 -16.10 119.76 TC 47 1 275
1996 SI WA 22:00:00 TS -15.91 119.85 40 990 bom 289 289 P_____O_____P_ SH181996 -16.06 119.73 48 0 -15.60 120.10 30 40 990 3.00 215 3 5 -16.06 119.73 TC 48 1 0
1996 SI WA 1996-03-09 00:00:00 TS -15.96 119.85 293 293 O_____P_____O_ jtwc_sh SH181996 -16.00 119.70 50 0 -15.87 120.14 30 40 990 232 -16.00 119.70 TC 50 2 211
1996 SI WA 01:00:00 TS -15.99 119.81 40 990 bom 293 293 P_____O_____P_ SH181996 -15.98 119.67 50 0 -16.00 120.10 30 40 990 3.00 242 3 5 -15.98 119.67 TC 50 3 248
1996 SI WA 03:00:00 TS -16.02 119.69 303 303 P_____P_____P_ SH181996 -15.94 119.62 50 0 -16.17 119.82 30 46 986 242 -15.94 119.62 TC 50 3 259
1996 SI WA 04:00:00 TS -16.02 119.64 50 985 bom 312 312 P_____O_____P_ SH181996 -15.93 119.60 50 0 -16.20 119.70 30 50 985 3.50 242 3 5 -15.93 119.60 TC 50 1 308
1996 SI WA 06:00:00 TS -15.98 119.65 312 303 O_____P_____O_ jtwc_sh SH181996 -15.90 119.60 50 0 -16.15 119.75 30 50 985 242 -15.90 119.60 TC 50 1 35
1996 SI WA 07:00:00 TS -15.95 119.67 50 985 bom 303 308 P_____O_____P_ SH181996 -15.88 119.61 50 0 -16.10 119.80 30 50 985 3.50 242 3 5 -15.88 119.61 TC 50 2 37
1996 SI WA 09:00:00 TS -15.91 119.70 308 308 P_____P_____P_ SH181996 -15.84 119.66 52 0 -16.03 119.80 30 50 985 242 -15.84 119.66 TC 52 2 37
1996 SI WA 10:00:00 TS -15.88 119.73 50 985 bom 308 298 P_____O_____P_ SH181996 -15.83 119.69 53 0 -16.00 119.80 30 50 985 3.50 242 3 5 -15.83 119.69 TC 53 3 60
1996 SI WA 12:00:00 TS -15.84 119.82 303 294 O_____P_____O_ jtwc_sh SH181996 -15.80 119.80 55 0 -15.93 119.86 30 50 985 242 -15.80 119.80 TC 55 3 67
1996 SI WA 13:00:00 TS -15.82 119.88 50 985 bom 294 285 P_____O_____P_ SH181996 -15.79 119.86 55 0 -15.90 119.90 30 50 985 3.50 242 3 5 -15.79 119.86 TC 55 4 72
1996 SI WA 15:00:00 TS -15.79 120.00 285 276 P_____P_____P_ SH181996 -15.77 120.02 57 0 -15.83 119.96 30 53 981 242 -15.77 120.02 TC 57 4 77
1996 SI WA 16:00:00 TS -15.78 120.07 55 980 bom 276 267 P_____O_____P_ SH181996 -15.77 120.11 58 0 -15.80 120.00 30 55 980 4.00 242 3 5 -15.77 120.11 TC 58 5 92
1996 SI WA 18:00:00 TS -15.80 120.24 267 258 O_____P_____O_ jtwc_sh SH181996 -15.80 120.30 60 0 -15.79 120.13 30 55 980 242 -15.80 120.30 TC 60 5 99
1996 SI WA 19:00:00 TS -15.82 120.33 55 980 bom 258 234 P_____O_____P_ SH181996 -15.83 120.40 60 0 -15.80 120.20 30 55 980 4.00 242 3 5 -15.83 120.40 TC 60 6 112
1996 SI WA 21:00:00 TS -15.90 120.52 234 219 P_____P_____P_ SH181996 -15.92 120.61 62 0 -15.86 120.33 30 55 980 242 -15.92 120.61 TC 62 6 116
1996 SI WA 22:00:00 TS -15.95 120.61 55 980 bom 219 201 P_____O_____P_ SH181996 -15.98 120.71 63 0 -15.90 120.40 30 55 980 4.00 242 3 5 -15.98 120.71 TC 63 6 121
1996 SI WA 1996-03-10 00:00:00 TS -16.05 120.78 195 186 O_____P_____O_ jtwc_sh SH181996 -16.10 120.90 65 1 -15.96 120.53 30 58 976 242 -16.10 120.90 TC 65 6 123
1996 SI WA 01:00:00 TS -16.11 120.86 60 975 bom 186 171 P_____O_____P_ SH181996 -16.16 120.99 65 1 -16.00 120.60 30 60 975 4.00 242 3 5 -16.16 120.99 TC 65 6 126
1996 SI WA 03:00:00 TS -16.23 121.03 171 156 P_____P_____P_ SH181996 -16.28 121.14 67 1 -16.12 120.79 30 60 975 242 -16.28 121.14 TC 67 6 130
1996 SI WA 04:00:00 TS -16.30 121.11 60 975 bom 156 135 P_____O_____P_ SH181996 -16.35 121.21 68 1 -16.20 120.90 30 60 975 4.00 242 6 5 -16.35 121.21 TC 68 6 139
1996 SI WA 06:00:00 TS -16.46 121.24 135 120 O_____P_____O_ jtwc_sh SH181996 -16.50 121.30 70 1 -16.39 121.12 30 63 971 242 -16.50 121.30 TC 70 6 146
1996 SI WA 07:00:00 TS -16.55 121.29 66 970 bom 120 115 P_____O_____P_ SH181996 -16.58 121.33 70 1 -16.50 121.20 40 66 970 4.50 242 6 5 -16.58 121.33 TC 70 6 166
1996 SI WA 09:00:00 TS -16.73 121.31 115 110 P_____P_____P_ SH181996 -16.75 121.35 72 1 -16.70 121.22 40 65 970 242 -16.75 121.35 TC 72 5 175
1996 SI WA 10:00:00 TS -16.82 121.30 65 970 bom 110 101 P_____O_____P_ SH181996 -16.84 121.35 73 1 -16.80 121.20 40 65 970 4.50 242 6 5 -16.84 121.35 TC 73 5 187
1996 SI WA 12:00:00 TS -17.00 121.27 101 98 O_____P_____O_ jtwc_sh SH181996 -17.00 121.30 75 1 -17.01 121.21 40 68 966 242 -17.00 121.30 TC 75 5 193
1996 SI WA 13:00:00 TS -17.08 121.24 70 965 bom 108 105 P_____O_____P_ SH181996 -17.07 121.27 75 1 -17.10 121.20 40 70 965 4.50 242 6 5 -17.07 121.27 TC 75 5 205
1996 SI WA 15:00:00 TS -17.22 121.17 105 105 P_____P_____P_ SH181996 -17.20 121.17 77 1 -17.25 121.15 40 70 965 242 -17.20 121.17 TC 77 5 213
1996 SI WA 16:00:00 TS -17.28 121.11 70 965 bom 111 111 P_____O_____P_ SH181996 -17.26 121.12 78 1 -17.30 121.10 40 70 965 4.50 242 8 6 5 -17.26 121.12 TC 78 5 228
1996 SI WA 18:00:00 TS -17.39 120.96 118 118 O_____P_____O_ jtwc_sh SH181996 -17.40 121.00 80 1 -17.36 120.89 40 76 961 242 -17.40 121.00 TC 80 5 229
1996 SI WA 19:00:00 TS -17.45 120.90 80 960 bom 127 127 P_____O_____P_ SH181996 -17.48 120.95 80 1 -17.40 120.80 40 80 960 5.00 242 8 6 5 -17.48 120.95 TC 80 5 211
1996 SI WA 21:00:00 TS -17.60 120.83 137 137 P_____P_____P_ SH181996 -17.64 120.85 82 1 -17.52 120.78 40 80 960 242 -17.64 120.85 TC 82 5 203
1996 SI WA 22:00:00 TS -17.69 120.80 80 960 bom 138 130 P_____O_____P_ SH181996 -17.73 120.80 83 2 -17.60 120.80 40 80 960 5.00 242 6 5 -17.73 120.80 TC 83 6 198
1996 SI WA 1996-03-11 00:00:00 TS -17.86 120.74 131 125 O_____P_____O_ jtwc_sh SH181996 -17.90 120.70 85 2 -17.79 120.82 40 80 956 242 -17.90 120.70 TC 85 6 199
1996 SI WA 01:00:00 TS -17.95 120.70 80 955 bom 125 125 P_____O_____P_ SH181996 -17.98 120.65 85 2 -17.90 120.80 40 80 955 5.00 242 6 5 -17.98 120.65 TC 85 6 208
1996 SI WA 03:00:00 TS -18.12 120.59 128 124 P_____P_____P_ SH181996 -18.13 120.55 87 2 -18.10 120.68 40 80 955 242 -18.13 120.55 TC 87 6 211
1996 SI WA 04:00:00 TS -18.21 120.53 80 955 bom 134 130 P_____O_____P_ SH181996 -18.22 120.50 88 2 -18.20 120.60 40 80 955 5.00 242 6 5 -18.22 120.50 TC 88 6 211
1996 SI WA 06:00:00 TS -18.40 120.42 138 130 O_____P_____O_ jtwc_sh SH181996 -18.40 120.40 90 2 -18.40 120.47 40 80 955 224 -18.40 120.40 TC 90 7 209
1996 SI WA 07:00:00 TS -18.50 120.37 80 955 bom 130 118 P_____O_____P_ SH181996 -18.50 120.35 90 2 -18.50 120.40 40 80 955 5.00 215 6 5 -18.50 120.35 TC 90 7 206
1996 SI WA 09:00:00 TS -18.72 120.26 118 113 P_____P_____P_ SH181996 -18.73 120.26 92 2 -18.69 120.27 40 80 955 215 -18.73 120.26 TC 92 7 205
1996 SI WA 10:00:00 TS -18.83 120.21 80 955 bom 113 88 P_____O_____P_ SH181996 -18.85 120.21 93 2 -18.80 120.20 40 80 955 5.00 215 6 5 -18.85 120.21 TC 93 8 204
1996 SI WA 12:00:00 TS -19.09 120.09 88 78 O_____P_____O_ jtwc_sh SH181996 -19.10 120.10 95 2 -19.08 120.06 40 86 951 215 -19.10 120.10 TC 95 9 204
1996 SI WA 13:00:00 TS -19.22 120.02 90 950 bom 81 64 P_____O_____P_ SH181996 -19.23 120.03 95 2 -19.20 120.00 40 90 950 5.50 215 6 5 -19.23 120.03 TC 95 8 206
1996 SI WA 15:00:00 TS -19.44 119.91 64 44 P_____P_____P_ SH181996 -19.49 119.89 97 3 -19.33 119.94 40 93 943 215 -19.49 119.89 TC 97 7 206
1996 SI WA 16:00:00 TS -19.55 119.85 95 940 bom 44 22 P_____O_____P_ SH181996 -19.63 119.82 98 3 -19.40 119.90 40 95 940 5.50 215 5 6 5 -19.63 119.82 TC 98 8 204
1996 SI WA 18:00:00 TS -19.82 119.72 24 10 O_____P_____O_ jtwc_sh SH181996 -19.90 119.70 100 3 -19.66 119.77 40 98 936 215 -19.90 119.70 TC 100 9 203
1996 SI WA 19:00:00 TS -19.96 119.67 100 935 bom 10 0 P_____O_____P_ SH181996 -20.03 119.65 100 3 -19.80 119.70 40 100 935 6.00 215 5 3 5 -20.03 119.65 TC 100 8 201
1996 SI WA 21:00:00 TS -20.20 119.57 0 0 P_____P_____P_ SH181996 -20.30 119.57 100 3 -20.00 119.56 40 100 935 215 -20.30 119.57 TC 100 8 200
1996 SI WA 22:00:00 TS -20.32 119.53 100 935 bom 0 0 P_____O_____P_ SH181996 -20.43 119.54 100 3 -20.10 119.50 40 100 935 215 5 3 4 -20.43 119.54 TC 100 8 193
1996 SI WA 1996-03-12 00:00:00 TS -20.59 119.47 0 0 O_____P_____O_ jtwc_sh SH181996 -20.70 119.50 100 3 -20.36 119.42 40 93 941 215 -20.70 119.50 TC 100 8 189
1996 SI WA 01:00:00 TS -20.72 119.45 90 945 bom 0 0 P_____O_____P_ SH181996 -20.83 119.48 98 3 -20.50 119.40 40 90 945 215 4 3 5 -20.83 119.48 TC 98 8 185
1996 SI WA 03:00:00 TS -20.99 119.43 0 0 P_____P_____P_ SH181996 -21.10 119.46 95 2 -20.77 119.39 40 83 951 215 -21.10 119.46 TC 95 8 0
1996 SI WA 04:00:00 TS -21.12 119.44 80 955 bom 0 0 P_____O_____P_ SH181996 -21.23 119.46 93 2 -20.90 119.40 40 80 955 215 3 5 -21.23 119.46 TC 93 8 178
1996 SI WA 06:00:00 TS -21.39 119.46 0 0 O_____P_____O_ jtwc_sh SH181996 -21.50 119.50 90 2 -21.16 119.38 40 73 961 197 -21.50 119.50 TC 90 8 173
1996 SI WA 07:00:00 TS -21.52 119.49 70 965 bom 0 0 P_____O_____P_ SH181996 -21.63 119.54 86 2 -21.30 119.40 40 70 965 188 3 5 -21.63 119.54 TC 86 9 161
1996 SI WA 09:00:00 TS -21.81 119.62 0 0 P_____P_____P_ SH181996 -21.90 119.66 80 1 -21.63 119.53 40 63 971 188 -21.90 119.66 TC 80 9 157
1996 SI WA 10:00:00 TS -21.96 119.69 60 975 bom 0 0 P_____O_____P_ SH181996 -22.03 119.74 76 1 -21.80 119.60 30 60 975 188 3 5 -22.03 119.74 TC 76 10 156
1996 SI WA 12:00:00 TS -22.24 119.82 0 0 O_____P_____O_ jtwc_sh SH181996 -22.30 119.90 70 1 -22.13 119.67 30 56 978 188 -22.30 119.90 TC 70 9 157
1996 SI WA 13:00:00 TS -22.39 119.89 55 980 bom 0 0 P_____O_____P_ SH181996 -22.43 119.98 65 1 -22.30 119.70 30 55 980 188 3 5 -22.43 119.98 TC 65 9 157
1996 SI WA 15:00:00 TS -22.68 120.01 0 0 P_____P_____P_ SH181996 -22.70 120.14 57 0 -22.63 119.76 30 48 983 188 -22.70 120.14 TC 57 9 157
1996 SI WA 16:00:00 TS -22.82 120.09 45 985 bom 0 0 P_____O_____P_ SH181996 -22.83 120.23 53 0 -22.80 119.80 30 45 985 188 3 5 -22.83 120.23 TC 53 10 155
1996 SI WA 18:00:00 TS -23.13 120.24 0 0 O_____P_____O_ jtwc_sh SH181996 -23.10 120.40 45 0 -23.19 119.93 30 41 988 188 -23.10 120.40 TC 45 10 154
1996 SI WA 19:00:00 TS -23.29 120.33 40 990 bom 0 0 P_____O_____P_ SH181996 -23.23 120.49 40 0 -23.40 120.00 30 40 990 188 3 5 -23.23 120.49 TC 40 10 153
1996 SI WA 21:00:00 TS -23.59 120.49 0 0 P_____P_____P_ SH181996 -23.49 120.67 32 -1 -23.80 120.13 30 36 993 188 -23.49 120.67 TC 32 10 154
1996 SI WA 22:00:00 TS -23.75 120.57 35 995 bom 0 0 P_____O_____P_ SH181996 -23.62 120.76 28 -1 -24.00 120.20 80 35 995 188 3 5 -23.62 120.76 TC 28 10 157
1996 SI WA 1996-03-13 00:00:00 TS -24.07 120.71 0 0 O_____P_____O_ jtwc_sh SH181996 -23.90 120.90 20 -1 -24.40 120.33 80 35 995 188 -23.90 120.90 TC 20 10 160
1996 SI WA 01:00:00 TS -24.23 120.77 35 995 bom 0 0 P_____O_____P_ SH181996 -24.05 120.95 20 -1 -24.60 120.40 80 35 995 188 3 5 -24.05 120.95 TC 20 11 165
1996 SI WA 03:00:00 TS -24.58 120.86 0 0 P_____P_____P_ SH181996 -24.36 121.02 20 -1 -25.01 120.53 80 35 995 188 -24.36 121.02 TC 20 11 167
1996 SI WA 04:00:00 TS -24.75 120.90 35 995 bom 0 0 P_____O_____P_ SH181996 -24.53 121.05 20 -1 -25.20 120.60 80 35 995 188 3 5 -24.53 121.05 TC 20 11 169
1996 SI WA 06:00:00 TS -25.11 120.97 0 0 O_____P_____O_ jtwc_sh SH181996 -24.90 121.10 20 -1 -25.54 120.72 80 35 995 188 -24.90 121.10 TC 20 11 169
1996 SI WA 07:00:00 TS -25.30 121.02 35 995 bom 0 0 P_____O_____P_ SH181996 -25.09 121.13 20 -1 -25.70 120.80 80 35 995 188 3 5 -25.09 121.13 TC 20 12 166
1996 SI WA 09:00:00 TS -25.68 121.13 0 0 P_____P_____P_ SH181996 -25.51 121.18 20 -1 -26.03 121.04 80 35 995 188 -25.51 121.18 TC 20 12 164
1996 SI WA 10:00:00 TS -25.89 121.21 35 995 bom 0 0 P_____O_____P_ SH181996 -25.73 121.21 20 -1 -26.20 121.20 80 35 995 188 3 5 -25.73 121.21 TC 20 14 160
1996 SI WA 12:00:00 TS -26.33 121.40 0 0 O_____P_____O_ jtwc_sh SH181996 -26.20 121.30 20 -1 -26.59 121.59 80 31 996 188 -26.20 121.30 TC 20 14 158
1996 SI WA 13:00:00 TS -26.56 121.51 30 998 bom 0 0 P_____O_____P_ SH181996 -26.43 121.36 20 -1 -26.80 121.80 80 30 998 188 3 5 -26.43 121.36 TC 20 15 156
1996 SI WA 15:00:00 TS -27.01 121.73 0 0 P_____P_____P_ SH181996 -26.92 121.51 20 -1 -27.19 122.18 80 30 998 188 -26.92 121.51 TC 20 15 155
1996 SI WA 16:00:00 TS -27.25 121.86 30 998 bom 0 0 P_____O_____P_ SH181996 -27.17 121.59 20 -1 -27.40 122.40 80 30 998 188 3 5 -27.17 121.59 TC 20 17 152
1996 SI WA 18:00:00 TS -27.75 122.17 0 0 O_____P_____O_ jtwc_sh SH181996 -27.70 121.80 20 -1 -27.86 122.91 80 30 998 188 -27.70 121.80 TC 20 18 151
1996 SI WA 19:00:00 TS -28.01 122.34 30 998 bom 0 0 P_____O_____P_ SH181996 -27.97 121.91 20 -1 -28.10 123.20 80 30 998 188 3 5 -27.97 121.91 TC 20 19 149
1996 SI WA 21:00:00 TS -28.55 122.72 0 0 P_____P_____P_ SH181996 -28.53 122.16 20 -1 -28.57 123.84 80 30 998 188 -28.53 122.16 TC 20 18 152
1996 SI WA 22:00:00 TS -28.82 122.81 30 998 bom 0 0 P_____O_____P_ SH181996 -28.82 122.29 20 -1 -28.80 124.20 80 30 998 188 3 5 -28.82 122.29 TC 20 18 159
1996 SI WA 1996-03-14 00:00:00 TS -29.37 123.08 0 0 O_____P_____O_ jtwc_sh SH181996 -29.40 122.60 20 -1 -29.27 124.99 80 26 999 170 -29.40 122.60 TC 20 17 166
1996 SI WA 01:00:00 TS -29.66 123.06 25 1000 bom 0 0 P_____O_____P_ SH181996 -29.68 122.76 20 -1 -29.50 125.40 80 25 1000 161 3 5 -29.68 122.76 TC 20 17 178
1996 SI WA 03:00:00 TS -30.24 123.12 0 0 P___________P_ SH181996 -30.24 123.12 20 -1 80 -30.24 123.12 TC 20 19 159
1996 SI WA 06:00:00 TS -31.10 123.70 0 0 O___________O_ jtwc_sh SH181996 -31.10 123.70 20 -1 -31.10 123.70 TC 20 20 150
1996 SI WA 09:00:00 TS -31.99 124.30 0 0 P___________P_ SH181996 -31.99 124.30 20 -1 -31.99 124.30 TC 20 21 151
1996 SI WA 12:00:00 TS -32.90 124.90 9 O___________O_ jtwc_sh SH181996 -32.90 124.90 20 -1 -32.90 124.90 TC 20 21 151